createdAt,value
2018-04-27T00:02:08.757Z,101196.73
2018-04-27T00:07:03.181Z,101192.73
2018-04-27T00:11:57.643Z,101188.72
2018-04-27T00:16:52.069Z,101187.60
2018-04-27T00:21:47.422Z,101189.00
2018-04-27T00:26:41.871Z,101190.56
2018-04-27T00:31:36.284Z,101181.59
2018-04-27T00:36:30.838Z,101178.31
2018-04-27T00:41:25.560Z,101171.87
2018-04-27T00:46:20.142Z,101165.02
2018-04-27T00:51:14.597Z,101162.95
2018-04-27T00:56:09.000Z,101158.67
2018-04-27T01:01:03.432Z,101157.86
2018-04-27T01:05:58.634Z,101151.27
2018-04-27T01:10:53.054Z,101152.61
2018-04-27T01:15:48.311Z,101141.17
2018-04-27T01:20:42.729Z,101141.23
2018-04-27T01:25:37.225Z,101141.30
2018-04-27T01:30:31.686Z,101144.06
2018-04-27T01:35:26.863Z,101138.03
2018-04-27T01:40:21.678Z,101138.98
2018-04-27T01:45:16.080Z,101130.81
2018-04-27T01:50:11.617Z,101137.03
2018-04-27T01:55:06.140Z,101129.31
2018-04-27T02:00:01.763Z,101128.62
2018-04-27T02:04:56.744Z,101119.59
2018-04-27T02:09:51.177Z,101122.45
2018-04-27T02:14:45.548Z,101113.43
2018-04-27T02:19:39.903Z,101113.94
2018-04-27T02:24:34.296Z,101101.31
2018-04-27T02:29:28.875Z,101100.88
2018-04-27T02:34:23.220Z,101100.38
2018-04-27T02:39:17.582Z,101099.70
2018-04-27T02:44:11.960Z,101096.76
2018-04-27T02:49:07.105Z,101091.94
2018-04-27T02:54:01.514Z,101084.59
2018-04-27T02:58:55.960Z,101091.17
2018-04-27T03:03:51.103Z,101096.94
2018-04-27T03:08:45.468Z,101084.37
2018-04-27T03:13:39.836Z,101081.16
2018-04-27T03:18:33.984Z,101075.25
2018-04-27T03:23:28.369Z,101067.54
2018-04-27T03:28:22.985Z,101059.09
2018-04-27T03:33:17.726Z,101062.48
2018-04-27T03:38:12.843Z,101052.38
2018-04-27T03:43:08.147Z,101047.10
2018-04-27T03:48:02.720Z,101040.95
2018-04-27T03:52:57.070Z,101036.57
2018-04-27T03:57:52.184Z,101039.27
2018-04-27T04:03:03.686Z,101034.06
2018-04-27T04:07:58.843Z,101030.45
2018-04-27T04:12:53.231Z,101023.37
2018-04-27T04:17:48.370Z,101021.94
2018-04-27T04:22:42.793Z,101014.33
2018-04-27T04:27:37.197Z,101005.91
2018-04-27T04:32:32.025Z,101009.14
2018-04-27T04:37:27.002Z,100994.70
2018-04-27T04:42:22.430Z,100986.86
2018-04-27T04:47:16.865Z,100983.42
2018-04-27T04:52:11.051Z,100981.46
2018-04-27T04:57:05.510Z,100987.36
2018-04-27T05:02:00.677Z,100991.74
2018-04-27T05:06:55.019Z,100991.23
2018-04-27T05:11:49.384Z,100997.24
2018-04-27T05:16:43.725Z,100993.27
2018-04-27T05:21:39.595Z,100988.35
2018-04-27T05:26:34.118Z,100990.13
2018-04-27T05:31:28.231Z,100984.84
2018-04-27T05:36:22.583Z,100983.04
2018-04-27T05:41:18.873Z,100990.55
2018-04-27T05:46:13.000Z,100975.36
2018-04-27T05:51:06.688Z,100975.90
2018-04-27T05:56:00.990Z,100968.03
2018-04-27T06:00:55.365Z,100947.11
2018-04-27T06:05:50.050Z,100946.09
2018-04-27T06:10:44.419Z,100941.16
2018-04-27T06:15:39.851Z,100948.87
2018-04-27T06:20:35.180Z,100938.98
2018-04-27T06:25:30.527Z,100942.36
2018-04-27T06:30:25.114Z,100935.30
2018-04-27T06:35:20.222Z,100919.41
2018-04-27T06:40:14.585Z,100915.16
2018-04-27T06:45:09.218Z,100907.36
2018-04-27T06:50:03.659Z,100909.76
2018-04-27T06:54:58.809Z,100912.11
2018-04-27T06:59:53.202Z,100905.09
2018-04-27T07:04:47.557Z,100914.13
2018-04-27T07:09:42.650Z,100896.02
2018-04-27T07:14:37.036Z,100890.98
2018-04-27T07:19:31.466Z,100886.81
2018-04-27T07:24:25.903Z,100869.72
2018-04-27T07:29:21.269Z,100865.44
2018-04-27T07:34:15.739Z,100876.09
2018-04-27T07:39:10.472Z,100867.03
2018-04-27T07:44:04.867Z,100855.65
2018-04-27T07:48:59.297Z,100848.58
2018-04-27T07:53:53.672Z,100849.84
2018-04-27T07:58:48.027Z,100840.98
2018-04-27T08:03:42.597Z,100833.79
2018-04-27T08:08:36.960Z,100836.87
2018-04-27T08:13:32.111Z,100837.31
2018-04-27T08:18:26.397Z,100826.52
2018-04-27T08:23:21.530Z,100823.48
2018-04-27T08:28:15.940Z,100823.82
2018-04-27T08:33:10.438Z,100809.41
2018-04-27T08:38:05.019Z,100813.47
2018-04-27T08:43:00.171Z,100806.22
2018-04-27T08:47:54.525Z,100802.47
2018-04-27T08:52:49.233Z,100803.68
2018-04-27T08:57:43.370Z,100794.58
2018-04-27T09:02:37.817Z,100786.19
2018-04-27T09:07:33.497Z,100786.96
2018-04-27T09:12:30.012Z,100769.08
2018-04-27T09:17:24.597Z,100760.48
2018-04-27T09:22:19.871Z,100750.69
2018-04-27T09:27:15.141Z,100753.83
2018-04-27T09:32:10.594Z,100750.64
2018-04-27T09:37:05.056Z,100737.70
2018-04-27T09:41:59.812Z,100724.95
2018-04-27T09:46:54.151Z,100712.61
2018-04-27T09:51:49.308Z,100707.63
2018-04-27T09:56:43.999Z,100698.84
2018-04-27T10:01:38.480Z,100687.77
2018-04-27T10:06:33.846Z,100686.23
2018-04-27T10:11:28.463Z,100676.55
2018-04-27T10:16:22.964Z,100667.15
2018-04-27T10:21:17.325Z,100648.15
2018-04-27T10:26:11.956Z,100639.06
2018-04-27T10:31:06.682Z,100652.23
2018-04-27T10:36:01.070Z,100634.02
2018-04-27T10:40:56.450Z,100636.66
2018-04-27T10:45:50.810Z,100627.34
2018-04-27T10:50:45.295Z,100627.60
2018-04-27T10:55:40.361Z,100608.70
2018-04-27T11:00:36.377Z,100594.32
2018-04-27T11:05:30.237Z,100579.13
2018-04-27T11:10:24.653Z,100585.37
2018-04-27T11:15:19.970Z,100581.39
2018-04-27T11:20:14.463Z,100562.52
2018-04-27T11:25:09.713Z,100569.80
2018-04-27T11:30:04.301Z,100564.05
2018-04-27T11:34:59.520Z,100548.05
2018-04-27T11:39:54.701Z,100530.45
2018-04-27T11:44:49.644Z,100523.38
2018-04-27T11:49:44.917Z,100517.64
2018-04-27T11:54:39.282Z,100520.50
2018-04-27T11:59:33.789Z,100503.75
2018-04-27T12:04:28.717Z,100468.68
2018-04-27T12:09:23.151Z,100444.83
2018-04-27T12:14:17.592Z,100450.77
2018-04-27T12:19:12.056Z,100448.38
2018-04-27T12:24:06.664Z,100427.41
2018-04-27T12:29:01.618Z,100423.37
2018-04-27T12:33:56.357Z,100420.48
2018-04-27T12:38:51.598Z,100407.64
2018-04-27T12:43:46.170Z,100394.61
2018-04-27T12:48:41.196Z,100373.20
2018-04-27T12:53:36.312Z,100343.42
2018-04-27T12:58:31.613Z,100345.73
2018-04-27T13:03:26.085Z,100329.00
2018-04-27T13:08:20.210Z,100347.84
2018-04-27T13:13:14.589Z,100336.85
2018-04-27T13:18:08.937Z,100338.34
2018-04-27T13:23:03.482Z,100316.81
2018-04-27T13:27:57.850Z,100318.45
2018-04-27T13:32:53.131Z,100326.61
2018-04-27T13:37:47.633Z,100325.33
2018-04-27T13:42:42.014Z,100319.48
2018-04-27T13:47:36.571Z,100311.42
2018-04-27T13:52:31.065Z,100317.45
2018-04-27T13:57:25.448Z,100301.68
2018-04-27T14:02:20.178Z,100295.09
2018-04-27T14:07:13.959Z,100289.08
2018-04-27T14:12:08.371Z,100266.05
2018-04-27T14:17:02.819Z,100272.78
2018-04-27T14:21:57.186Z,100246.77
2018-04-27T14:26:51.612Z,100234.72
2018-04-27T14:31:46.981Z,100216.63
2018-04-27T14:36:41.353Z,100213.96
2018-04-27T14:41:35.957Z,100204.06
2018-04-27T14:46:30.585Z,100205.42
2018-04-27T14:51:25.456Z,100175.36
2018-04-27T14:56:20.997Z,100169.94
2018-04-27T15:01:16.263Z,100185.83
2018-04-27T15:06:12.835Z,100186.98
2018-04-27T15:11:07.054Z,100196.34
2018-04-27T15:16:01.548Z,100178.52
2018-04-27T15:20:55.910Z,100187.91
2018-04-27T15:25:50.258Z,100175.77
2018-04-27T15:30:44.631Z,100176.84
2018-04-27T15:35:38.777Z,100157.00
2018-04-27T15:40:33.304Z,100158.55
2018-04-27T15:45:28.437Z,100161.08
2018-04-27T15:50:22.776Z,100160.97
2018-04-27T15:55:17.211Z,100147.62
2018-04-27T16:00:12.330Z,100149.77
2018-04-27T16:05:06.841Z,100140.23
2018-04-27T16:10:02.216Z,100147.33
2018-04-27T16:14:56.796Z,100139.78
2018-04-27T16:19:53.643Z,100143.14
2018-04-27T16:24:48.779Z,100135.75
2018-04-27T16:29:43.136Z,100144.38
2018-04-27T16:34:37.491Z,100137.23
2018-04-27T16:39:31.844Z,100129.83
2018-04-27T16:44:26.201Z,100124.69
2018-04-27T16:49:20.574Z,100129.02
2018-04-27T16:54:15.701Z,100114.25
2018-04-27T16:59:10.820Z,100119.34
2018-04-27T17:04:05.986Z,100118.64
2018-04-27T17:09:00.474Z,100118.28
2018-04-27T17:13:55.009Z,100112.84
2018-04-27T17:18:49.516Z,100104.79
2018-04-27T17:23:43.893Z,100109.14
2018-04-27T17:28:38.515Z,100117.95
2018-04-27T17:33:33.012Z,100112.42
2018-04-27T17:38:27.361Z,100110.92
2018-04-27T17:43:21.760Z,100113.78
2018-04-27T17:48:16.298Z,100109.32
2018-04-27T17:53:10.674Z,100111.27
2018-04-27T17:58:05.779Z,100109.70
2018-04-27T18:03:00.380Z,100116.15
2018-04-27T18:07:54.759Z,100119.80
2018-04-27T18:12:49.129Z,100121.84
2018-04-27T18:17:44.262Z,100125.88
2018-04-27T18:22:38.846Z,100135.49
2018-04-27T18:27:34.118Z,100130.02
2018-04-27T18:32:28.507Z,100139.50
2018-04-27T18:37:22.924Z,100138.89
2018-04-27T18:42:17.269Z,100141.58
2018-04-27T18:47:12.421Z,100142.45
2018-04-27T18:52:06.571Z,100146.41
2018-04-27T18:57:00.723Z,100146.88
2018-04-27T19:01:54.823Z,100147.63
2018-04-27T19:06:49.234Z,100144.99
2018-04-27T19:11:42.861Z,100145.50
2018-04-27T19:16:36.708Z,100155.58
2018-04-27T19:21:31.104Z,100153.47
2018-04-27T19:26:25.773Z,100161.98
2018-04-27T19:31:20.411Z,100164.34
2018-04-27T19:36:14.532Z,100161.33
2018-04-27T19:41:08.909Z,100169.15
2018-04-27T19:46:03.332Z,100172.24
2018-04-27T19:50:57.816Z,100169.98
2018-04-27T19:55:52.195Z,100179.40
2018-04-27T20:00:46.845Z,100163.91
2018-04-27T20:05:48.867Z,100162.37
2018-04-27T20:10:44.889Z,100169.65
2018-04-27T20:15:44.172Z,100170.48
2018-04-27T20:20:37.784Z,100168.08
2018-04-27T20:25:35.471Z,100175.98
2018-04-27T20:30:29.674Z,100178.80
2018-04-27T20:35:23.103Z,100178.84
2018-04-27T20:40:16.762Z,100179.19
2018-04-27T20:45:13.687Z,100192.60
2018-04-27T20:50:07.422Z,100196.61
2018-04-27T20:55:01.222Z,100196.33
2018-04-27T20:59:56.312Z,100195.72
2018-04-27T21:04:50.823Z,100194.39
2018-04-27T21:09:45.168Z,100198.50
2018-04-27T21:14:39.540Z,100203.86
2018-04-27T21:19:34.652Z,100201.41
2018-04-27T21:24:28.281Z,100205.61
2018-04-27T21:29:22.706Z,100215.06
2018-04-27T21:34:17.047Z,100218.36
2018-04-27T21:39:15.368Z,100216.28
2018-04-27T21:44:15.937Z,100219.61
2018-04-27T21:49:25.568Z,100232.36
2018-04-27T21:54:21.831Z,100236.91
2018-04-27T21:59:22.062Z,100237.00
2018-04-27T22:04:16.239Z,100238.91
2018-04-27T22:09:10.623Z,100245.14
2018-04-27T22:14:05.145Z,100248.81
2018-04-27T22:18:58.556Z,100249.80
2018-04-27T22:24:05.325Z,100257.56
2018-04-27T22:29:00.767Z,100255.77
2018-04-27T22:33:56.823Z,100261.45
2018-04-27T22:54:53.470Z,100260.95
2018-04-27T22:59:51.208Z,100265.07
2018-04-27T23:04:45.010Z,100271.07
2018-04-27T23:09:39.201Z,100268.98
2018-04-27T23:14:35.504Z,100270.42
2018-04-27T23:19:37.305Z,100275.56
2018-04-27T23:24:32.528Z,100276.45
2018-04-27T23:29:26.483Z,100279.09
2018-04-27T23:34:36.249Z,100283.66
2018-04-27T23:39:31.435Z,100282.85
2018-04-27T23:44:25.319Z,100285.71
2018-04-27T23:49:21.244Z,100299.53
2018-04-27T23:54:15.243Z,100295.39
2018-04-27T23:59:09.582Z,100295.71
